Time;durP1;ratioP1;P1;durP2;ratioP2;P2;SDS_P1;SDS_P2;PMS_P1;PMS_P2;Temp;Humidity;BMP_temperature;BMP_pressure;BME280_temperature;BME280_humidity;BME280_pressure;Samples;Min_cycle;Max_cycle;Signal;HPM_P1;HPM_P2
2022/03/21 13:52:05;;;;;;;4.75;1.60;;;;;;;;;;7370459;19;132629;-14
2022/03/21 13:54:51;;;;;;;2.25;1.85;;;;;;;;;;7364689;19;153505;-13
2022/03/21 13:57:23;;;;;;;3.90;1.70;;;;;;;;;;7363966;19;161954;-15
2022/03/21 14:00:12;;;;;;;4.88;1.55;;;;;;;;;;7361649;19;162328;-14
2022/03/21 14:02:45;;;;;;;4.72;2.65;;;;;;;;;;7368137;19;153900;-15
2022/03/21 14:05:21;;;;;;;2.47;1.55;;;;;;;;;;7366985;19;153563;-14
2022/03/21 14:08:11;;;;;;;2.55;1.50;;;;;;;;;;7363580;19;162535;-13
2022/03/21 14:10:44;;;;;;;3.05;1.70;;;;;;;;;;7365358;19;162414;-15
2022/03/21 14:13:19;;;;;;;2.08;1.60;;;;;;;;;;7361182;19;154036;-15
2022/03/21 14:15:56;;;;;;;1.95;1.60;;;;;;;;;;7367408;19;153780;-14
2022/03/21 14:18:29;;;;;;;3.70;1.58;;;;;;;;;;7365714;19;162052;-16
2022/03/21 14:21:02;;;;;;;3.17;1.48;;;;;;;;;;7362353;19;162337;-16
2022/03/21 14:23:37;;;;;;;3.38;1.52;;;;;;;;;;7364918;19;153883;-13
2022/03/21 14:28:52;;;;;;;2.65;1.70;;;;;;;;;;7367446;19;161990;-14
2022/03/21 14:31:23;;;;;;;6.15;3.85;;;;;;;;;;7362996;19;162293;-15
2022/03/21 14:33:55;;;;;;;22.67;9.55;;;;;;;;;;7365743;19;154017;-15
2022/03/21 14:36:27;;;;;;;57.97;24.85;;;;;;;;;;7366737;19;153678;-15
2022/03/21 14:39:01;;;;;;;107.82;46.53;;;;;;;;;;7365485;19;161805;-13
2022/03/21 14:41:32;;;;;;;99.55;39.28;;;;;;;;;;7360955;19;162395;-14
2022/03/21 14:44:03;;;;;;;79.25;31.88;;;;;;;;;;7363382;19;153917;-15
2022/03/21 14:46:37;;;;;;;38.13;16.55;;;;;;;;;;7362479;19;153626;-14
2022/03/21 14:49:08;;;;;;;32.85;15.35;;;;;;;;;;7362196;19;162115;-14
2022/03/21 14:51:41;;;;;;;44.13;17.27;;;;;;;;;;7347210;19;162471;-14
2022/03/21 14:54:15;;;;;;;47.42;21.88;;;;;;;;;;7333792;19;153946;-15
2022/03/21 14:56:46;;;;;;;48.03;22.13;;;;;;;;;;7333951;19;153813;-16
2022/03/21 14:59:17;;;;;;;40.47;20.25;;;;;;;;;;7332271;19;161864;-14
2022/03/21 15:01:48;;;;;;;46.33;22.52;;;;;;;;;;7331794;19;162401;-15
2022/03/21 15:04:20;;;;;;;41.63;17.55;;;;;;;;;;7333913;19;154045;-15
2022/03/21 15:06:53;;;;;;;48.38;19.45;;;;;;;;;;7333936;19;153500;-14
2022/03/21 15:09:27;;;;;;;53.30;23.20;;;;;;;;;;7332334;19;161926;-15
2022/03/21 15:11:59;;;;;;;40.55;18.60;;;;;;;;;;7333371;19;162182;-14
2022/03/21 15:14:30;;;;;;;46.83;21.23;;;;;;;;;;7333975;19;153939;-14
2022/03/21 15:19:49;;;;;;;42.47;19.40;;;;;;;;;;7333287;19;161939;-14
2022/03/21 15:22:20;;;;;;;35.30;17.05;;;;;;;;;;7330431;19;162127;-15
2022/03/21 15:24:54;;;;;;;38.78;18.77;;;;;;;;;;7333118;19;153891;-15
2022/03/21 15:27:26;;;;;;;36.03;19.63;;;;;;;;;;7333074;19;154295;-15
2022/03/21 15:29:57;;;;;;;42.08;22.55;;;;;;;;;;7332956;19;161906;-14
2022/03/21 15:32:28;;;;;;;39.88;17.55;;;;;;;;;;7331411;19;162456;-14
2022/03/21 15:34:59;;;;;;;36.90;19.08;;;;;;;;;;7332922;19;154004;-14
2022/03/21 15:43:02;;;;;;;32.05;16.92;;;;;;;;;;7332301;19;162566;-16
2022/03/21 15:45:34;;;;;;;33.13;17.55;;;;;;;;;;7332915;19;153906;-14
2022/03/21 15:48:06;;;;;;;36.33;18.27;;;;;;;;;;7332462;19;153768;-16
2022/03/21 15:50:39;;;;;;;36.80;17.33;;;;;;;;;;7330952;19;161761;-15
2022/03/21 15:53:10;;;;;;;31.23;16.73;;;;;;;;;;7331936;19;162914;-14
2022/03/21 15:55:44;;;;;;;37.95;18.45;;;;;;;;;;7332389;19;154076;-12
2022/03/21 15:58:18;;;;;;;35.33;16.63;;;;;;;;;;7331838;19;153742;-13
2022/03/21 16:00:49;;;;;;;40.10;17.45;;;;;;;;;;7331378;19;162024;-12
2022/03/21 16:03:25;;;;;;;37.25;16.42;;;;;;;;;;7329266;19;162418;-13
2022/03/21 16:05:57;;;;;;;34.97;17.15;;;;;;;;;;7331109;19;154100;-14
2022/03/21 16:08:29;;;;;;;35.80;17.50;;;;;;;;;;7330746;19;153741;-14
2022/03/21 16:11:03;;;;;;;34.15;17.92;;;;;;;;;;7330487;19;161560;-14
2022/03/21 16:13:34;;;;;;;31.10;17.05;;;;;;;;;;7330240;19;162894;-15
2022/03/21 16:16:07;;;;;;;39.22;17.85;;;;;;;;;;7332020;19;154084;-16
2022/03/21 16:18:39;;;;;;;31.30;16.23;;;;;;;;;;7331278;19;153690;-16
2022/03/21 16:21:11;;;;;;;30.35;16.23;;;;;;;;;;7331182;19;161829;-17
2022/03/21 16:23:42;;;;;;;29.75;16.17;;;;;;;;;;7331194;19;162409;-15
2022/03/21 16:26:16;;;;;;;30.55;15.75;;;;;;;;;;7331567;19;153840;-15
2022/03/21 16:28:47;;;;;;;32.25;15.93;;;;;;;;;;7331615;19;153809;-14
2022/03/21 16:31:21;;;;;;;35.92;17.77;;;;;;;;;;7330780;19;161742;-14
2022/03/21 16:33:52;;;;;;;26.50;15.32;;;;;;;;;;7331177;19;162474;-14
2022/03/21 16:36:23;;;;;;;31.85;16.35;;;;;;;;;;7331559;19;153849;-13
2022/03/21 16:38:55;;;;;;;31.83;16.20;;;;;;;;;;7331246;19;153487;-14
2022/03/21 16:41:49;;;;;;;29.15;16.13;;;;;;;;;;7329719;19;162138;-15
2022/03/21 16:44:21;;;;;;;28.60;15.18;;;;;;;;;;7330716;19;162616;-14
2022/03/21 16:46:52;;;;;;;26.98;15.38;;;;;;;;;;7331133;19;153873;-15
2022/03/21 16:49:27;;;;;;;34.05;16.83;;;;;;;;;;7331318;19;153605;-16
2022/03/21 16:51:58;;;;;;;28.70;14.48;;;;;;;;;;7327827;19;161795;-16
2022/03/21 16:54:29;;;;;;;30.67;15.38;;;;;;;;;;7330780;19;162350;-16
2022/03/21 16:57:04;;;;;;;31.23;15.18;;;;;;;;;;7331024;19;153899;-15
2022/03/21 16:59:36;;;;;;;30.92;15.15;;;;;;;;;;7329580;19;153716;-16
2022/03/21 17:02:08;;;;;;;29.58;15.25;;;;;;;;;;7329302;19;161934;-17
2022/03/21 17:04:41;;;;;;;24.77;14.75;;;;;;;;;;7330380;19;162453;-15
2022/03/21 17:07:13;;;;;;;24.30;14.20;;;;;;;;;;7330901;19;153957;-15
2022/03/21 17:09:45;;;;;;;25.70;14.90;;;;;;;;;;7329584;19;153942;-15
2022/03/21 17:12:21;;;;;;;29.95;15.38;;;;;;;;;;7330091;19;161869;-15
2022/03/21 17:14:52;;;;;;;28.95;14.70;;;;;;;;;;7329159;19;162393;-14
2022/03/21 17:17:23;;;;;;;29.30;15.10;;;;;;;;;;7330353;19;153853;-16
2022/03/21 17:25:22;;;;;;;23.42;14.52;;;;;;;;;;7329763;19;162577;-14
2022/03/21 17:28:01;;;;;;;32.38;15.13;;;;;;;;;;7330195;19;153925;-14
2022/03/21 17:30:34;;;;;;;29.40;15.13;;;;;;;;;;7329589;19;153581;-15
2022/03/21 17:33:06;;;;;;;24.92;14.05;;;;;;;;;;7328232;19;161953;-14
2022/03/21 17:35:39;;;;;;;25.52;14.25;;;;;;;;;;7329459;19;162356;-15
2022/03/21 17:38:10;;;;;;;24.25;14.65;;;;;;;;;;7329601;19;153914;-14
2022/03/21 17:40:41;;;;;;;24.88;13.15;;;;;;;;;;7329586;19;153606;-14
2022/03/21 17:43:15;;;;;;;27.33;13.57;;;;;;;;;;7327360;19;161710;-15
2022/03/21 17:45:48;;;;;;;26.45;14.18;;;;;;;;;;7329048;19;162440;-14
2022/03/21 17:48:19;;;;;;;27.08;13.68;;;;;;;;;;7328415;19;153955;-14
2022/03/21 17:50:52;;;;;;;23.00;12.80;;;;;;;;;;7327425;19;153647;-15
2022/03/21 17:53:30;;;;;;;26.90;13.25;;;;;;;;;;7328771;19;161819;-16
2022/03/21 17:56:02;;;;;;;26.00;13.32;;;;;;;;;;7327688;19;162433;-16
2022/03/21 17:58:37;;;;;;;24.05;13.73;;;;;;;;;;7329078;19;153751;-15
2022/03/21 18:01:12;;;;;;;26.98;14.15;;;;;;;;;;7329003;19;153735;-14
2022/03/21 18:03:43;;;;;;;26.73;13.73;;;;;;;;;;7326700;19;161810;-14
2022/03/21 18:06:14;;;;;;;24.67;13.07;;;;;;;;;;7328391;19;162570;-17
2022/03/21 18:08:48;;;;;;;25.42;14.52;;;;;;;;;;7328914;19;154029;-16
2022/03/21 18:11:21;;;;;;;22.60;13.73;;;;;;;;;;7328417;19;153629;-14
2022/03/21 18:13:56;;;;;;;21.02;12.60;;;;;;;;;;7328262;19;161958;-15
2022/03/21 18:16:30;;;;;;;26.83;14.63;;;;;;;;;;7327822;19;162700;-15
2022/03/21 18:19:34;;;;;;;24.10;13.88;;;;;;;;;;7328387;19;153950;-15
2022/03/21 18:22:02;;;;;;;25.77;13.63;;;;;;;;;;7328195;19;153776;-14
2022/03/21 18:24:35;;;;;;;24.70;13.43;;;;;;;;;;7323999;19;161999;-15
2022/03/21 18:27:07;;;;;;;27.35;13.55;;;;;;;;;;7330690;19;162362;-16
2022/03/21 18:29:41;;;;;;;24.30;13.43;;;;;;;;;;7333626;19;154288;-15
2022/03/21 18:32:12;;;;;;;21.55;12.10;;;;;;;;;;7334418;19;153638;-15
2022/03/21 18:34:44;;;;;;;22.13;12.70;;;;;;;;;;7334435;19;161766;-15
2022/03/21 18:37:15;;;;;;;22.27;12.13;;;;;;;;;;7334344;19;162349;-14
2022/03/21 18:39:47;;;;;;;22.98;12.27;;;;;;;;;;7334478;19;154082;-14
2022/03/21 18:42:19;;;;;;;22.05;12.13;;;;;;;;;;7334340;19;153690;-14
2022/03/21 18:44:58;;;;;;;21.58;12.63;;;;;;;;;;7331547;19;161806;-16
2022/03/21 18:47:29;;;;;;;21.20;12.60;;;;;;;;;;7333963;19;162488;-15
2022/03/21 18:50:01;;;;;;;20.92;11.82;;;;;;;;;;7333739;19;153980;-12
2022/03/21 18:52:32;;;;;;;23.00;12.77;;;;;;;;;;7334212;19;153711;-13
2022/03/21 18:55:04;;;;;;;19.13;11.35;;;;;;;;;;7333748;19;161765;-15
2022/03/21 18:57:36;;;;;;;21.52;12.25;;;;;;;;;;7333940;19;162507;-15
2022/03/21 19:00:14;;;;;;;22.92;11.77;;;;;;;;;;7334235;19;153788;-16
2022/03/21 19:02:46;;;;;;;22.45;12.02;;;;;;;;;;7333661;19;153593;-16
2022/03/21 19:05:18;;;;;;;20.92;13.13;;;;;;;;;;7333672;19;161679;-16
2022/03/21 19:07:49;;;;;;;20.83;11.93;;;;;;;;;;7333132;19;162302;-15
2022/03/21 19:10:21;;;;;;;22.48;11.95;;;;;;;;;;7333614;19;153878;-14
2022/03/21 19:12:55;;;;;;;21.75;11.65;;;;;;;;;;7333661;19;153612;-15
2022/03/21 19:15:30;;;;;;;21.60;11.68;;;;;;;;;;7333303;19;161896;-15
2022/03/21 19:18:02;;;;;;;18.55;11.27;;;;;;;;;;7333012;19;162451;-13
2022/03/21 19:20:35;;;;;;;23.05;11.77;;;;;;;;;;7333246;19;153932;-13
2022/03/21 19:23:09;;;;;;;22.75;11.60;;;;;;;;;;7333312;19;153595;-13
2022/03/21 19:25:41;;;;;;;15.95;10.50;;;;;;;;;;7333124;19;161680;-16
2022/03/21 19:28:13;;;;;;;19.40;11.03;;;;;;;;;;7332999;19;162412;-16
2022/03/21 19:30:47;;;;;;;19.05;11.38;;;;;;;;;;7333463;19;154117;-17
2022/03/21 19:33:18;;;;;;;22.08;12.88;;;;;;;;;;7333342;19;153570;-14
2022/03/21 19:35:50;;;;;;;20.10;11.85;;;;;;;;;;7332875;19;161890;-14
2022/03/21 19:38:25;;;;;;;19.27;11.32;;;;;;;;;;7332228;19;162431;-15
2022/03/21 19:41:02;;;;;;;20.42;10.70;;;;;;;;;;7332786;19;154102;-15
2022/03/21 19:43:34;;;;;;;21.33;11.00;;;;;;;;;;7331890;19;153578;-16
2022/03/21 19:46:08;;;;;;;8.60;5.07;;;;;;;;;;7332902;19;161910;-15
2022/03/21 19:48:40;;;;;;;13.65;6.18;;;;;;;;;;7332551;19;162438;-15
2022/03/21 19:51:11;;;;;;;22.83;12.77;;;;;;;;;;7331156;19;153939;-16
2022/03/21 19:53:42;;;;;;;19.67;11.68;;;;;;;;;;7333113;19;153608;-15
2022/03/21 19:56:18;;;;;;;14.27;9.15;;;;;;;;;;7332556;19;161797;-15
2022/03/21 19:58:50;;;;;;;19.70;9.93;;;;;;;;;;7332344;19;162543;-16
2022/03/21 20:01:24;;;;;;;16.77;10.35;;;;;;;;;;7332683;19;153977;-16
2022/03/21 20:03:55;;;;;;;15.15;8.50;;;;;;;;;;7331826;19;153797;-16
2022/03/21 20:06:26;;;;;;;16.23;7.93;;;;;;;;;;7332143;19;161772;-17
2022/03/21 20:09:11;;;;;;;13.30;8.07;;;;;;;;;;7332117;19;162435;-14
2022/03/21 20:11:43;;;;;;;15.45;9.95;;;;;;;;;;7331299;19;153994;-14
2022/03/21 20:14:15;;;;;;;22.87;9.77;;;;;;;;;;7332473;19;153609;-14
2022/03/21 20:16:49;;;;;;;20.38;10.95;;;;;;;;;;7332018;19;161803;-15
2022/03/21 20:19:21;;;;;;;15.20;10.23;;;;;;;;;;7331661;19;162426;-14
2022/03/21 20:21:53;;;;;;;15.10;9.63;;;;;;;;;;7332273;19;153960;-15
2022/03/21 20:24:24;;;;;;;14.73;9.68;;;;;;;;;;7331159;19;153549;-14
2022/03/21 20:26:56;;;;;;;19.27;11.70;;;;;;;;;;7330505;19;162075;-15
2022/03/21 20:29:30;;;;;;;16.08;9.38;;;;;;;;;;7333493;19;162395;-16
2022/03/21 20:32:09;;;;;;;17.27;11.43;;;;;;;;;;7334975;19;154382;-16
2022/03/21 20:34:41;;;;;;;19.73;10.32;;;;;;;;;;7334781;19;153913;-15
2022/03/21 20:37:13;;;;;;;19.17;10.20;;;;;;;;;;7334168;19;161977;-15
2022/03/21 20:39:49;;;;;;;17.83;10.02;;;;;;;;;;7334812;19;162492;-14
2022/03/21 20:42:21;;;;;;;12.10;8.15;;;;;;;;;;7334464;19;153986;-14
2022/03/21 20:44:52;;;;;;;16.13;8.60;;;;;;;;;;7333471;19;153480;-14
2022/03/21 20:47:27;;;;;;;19.92;9.75;;;;;;;;;;7332109;19;161964;-14
2022/03/21 20:49:59;;;;;;;16.98;9.27;;;;;;;;;;7330622;19;163148;-15
2022/03/21 20:52:32;;;;;;;21.83;9.13;;;;;;;;;;7333670;19;154006;-21
2022/03/21 20:55:03;;;;;;;13.00;8.55;;;;;;;;;;7333871;19;153584;-14
2022/03/21 20:57:34;;;;;;;14.82;9.20;;;;;;;;;;7333938;19;161892;-15
2022/03/21 21:00:07;;;;;;;12.02;7.88;;;;;;;;;;7333675;19;162430;-15
2022/03/21 21:02:41;;;;;;;13.25;8.00;;;;;;;;;;7333437;19;154001;-16
2022/03/21 21:05:12;;;;;;;14.27;8.23;;;;;;;;;;7332456;19;153613;-17
2022/03/21 21:07:45;;;;;;;12.13;7.80;;;;;;;;;;7332809;19;161847;-14
2022/03/21 21:13:01;;;;;;;12.18;8.25;;;;;;;;;;7330270;19;154062;-14
2022/03/21 21:15:33;;;;;;;11.38;7.85;;;;;;;;;;7335464;19;153734;-16
2022/03/21 21:18:08;;;;;;;26.48;16.00;;;;;;;;;;7333646;19;161798;-15
2022/03/21 21:20:40;;;;;;;28.50;14.90;;;;;;;;;;7329797;19;162493;-14
2022/03/21 21:23:15;;;;;;;24.23;13.45;;;;;;;;;;7330434;19;153925;-14
2022/03/21 21:25:47;;;;;;;27.17;14.15;;;;;;;;;;7332903;19;153693;-15
2022/03/21 21:28:21;;;;;;;49.80;26.58;;;;;;;;;;7332491;19;161861;-15
2022/03/21 21:30:54;;;;;;;30.85;19.25;;;;;;;;;;7329668;19;162351;-13
2022/03/21 21:33:28;;;;;;;37.75;19.23;;;;;;;;;;7333619;19;154008;-14
2022/03/21 21:36:00;;;;;;;82.07;41.67;;;;;;;;;;7329795;19;153633;-15
2022/03/21 21:38:32;;;;;;;82.50;44.55;;;;;;;;;;7329082;19;162006;-13
2022/03/21 21:41:04;;;;;;;84.40;45.00;;;;;;;;;;7329058;19;162450;-14
2022/03/21 21:43:38;;;;;;;67.80;37.65;;;;;;;;;;7329485;19;154135;-15
2022/03/21 21:46:10;;;;;;;78.85;42.08;;;;;;;;;;7327657;19;153601;-13
2022/03/21 21:48:47;;;;;;;90.30;48.80;;;;;;;;;;7333138;19;161732;-15
2022/03/21 21:51:19;;;;;;;56.75;32.00;;;;;;;;;;7329208;19;162379;-13
2022/03/21 21:53:51;;;;;;;65.85;36.30;;;;;;;;;;7333159;19;154020;-14
2022/03/21 21:56:22;;;;;;;65.22;37.97;;;;;;;;;;7328917;19;153543;-13
2022/03/21 21:58:54;;;;;;;47.58;28.80;;;;;;;;;;7329471;19;161930;-15
2022/03/21 22:01:26;;;;;;;54.47;31.15;;;;;;;;;;7331700;19;162340;-14
2022/03/21 22:04:00;;;;;;;48.70;28.67;;;;;;;;;;7339183;19;153869;-14
2022/03/21 22:06:31;;;;;;;47.50;28.48;;;;;;;;;;7336531;19;153551;-15
2022/03/21 22:09:03;;;;;;;51.17;28.27;;;;;;;;;;7337373;19;161937;-13
2022/03/21 22:11:34;;;;;;;56.35;31.98;;;;;;;;;;7338584;19;162755;-14
2022/03/21 22:14:06;;;;;;;49.03;29.33;;;;;;;;;;7338755;19;153948;-13
2022/03/21 22:16:40;;;;;;;52.97;29.27;;;;;;;;;;7338775;19;153632;-13
2022/03/21 22:19:15;;;;;;;41.17;25.65;;;;;;;;;;7338122;19;161963;-13
2022/03/21 22:21:47;;;;;;;45.25;27.50;;;;;;;;;;7337454;19;162343;-15
2022/03/21 22:24:18;;;;;;;46.15;24.83;;;;;;;;;;7337184;19;153977;-15
2022/03/21 22:26:50;;;;;;;40.35;22.48;;;;;;;;;;7335091;19;153949;-15
2022/03/21 22:29:21;;;;;;;46.53;26.33;;;;;;;;;;7336936;19;161997;-14
2022/03/21 22:31:53;;;;;;;44.97;25.67;;;;;;;;;;7337063;19;162691;-15
2022/03/21 22:34:26;;;;;;;46.67;25.13;;;;;;;;;;7338575;19;153937;-15
2022/03/21 22:36:58;;;;;;;41.92;24.10;;;;;;;;;;7336593;19;153622;-15
2022/03/21 22:39:30;;;;;;;50.28;26.10;;;;;;;;;;7338119;19;162016;-18
2022/03/21 22:47:30;;;;;;;42.95;25.55;;;;;;;;;;7335367;19;153742;-15
2022/03/21 22:50:03;;;;;;;42.73;23.83;;;;;;;;;;7336713;19;161799;-15
2022/03/21 22:52:35;;;;;;;232.27;132.32;;;;;;;;;;7338148;19;162430;-13
2022/03/21 22:55:07;;;;;;;172.48;101.40;;;;;;;;;;7331543;19;153937;-13
2022/03/21 22:57:38;;;;;;;168.10;95.70;;;;;;;;;;7334446;19;153681;-13
2022/03/21 23:00:11;;;;;;;147.98;81.82;;;;;;;;;;7333602;19;161823;-14
2022/03/21 23:02:42;;;;;;;192.07;113.15;;;;;;;;;;7330872;19;162573;-13
2022/03/21 23:05:18;;;;;;;189.27;112.30;;;;;;;;;;7333429;19;153971;-15
2022/03/21 23:07:49;;;;;;;179.30;105.97;;;;;;;;;;7331809;19;153678;-14
2022/03/21 23:10:20;;;;;;;176.00;108.68;;;;;;;;;;7333551;19;161866;-14
2022/03/21 23:12:52;;;;;;;174.23;104.80;;;;;;;;;;7332702;19;162450;-13
